Tall Timbers, Maryland
Current Conditions -  °F | °C
As of 3:53 AM on Thursday 23 Oct 2014 (Local Time) from KNUI Reporting Station
Overcast Overcast  
Wind Chill: 12°   Ceiling: 3800
Heat Index: 12°   Visibility: 10mi
Dew Point:   Wind: 14mph
Humidity: 66%   Direction: 300°WNW
Pressure: 29.84"   Gusts: 24mph
Location:  38.17°N, 76.55°W
Report Text: KNUI 230753Z AUTO 30012G21KT 10SM BKN038 OVC060 12/06 A2984 RMK AO2 SLP103 T01170056
Loading
Personal Weather Stations






























Interactive Weather Map
Tropical Storm Tracking
New forecast layout! Learn more

10-Day Weather Forecast

Advertisements
Track Severe Weather on mobile